Terminal Aerodrome Forecast
Issued by NWS

Home | Current Version | Previous Version | Text Only | Print | Product List | Glossary On
Versions: 1 2 3 4 5 6 7 8 9 10 11 12 13 14 15 16 17 18 19 20 21 22 23 24 25 26 27
000
FTUS45 KTWC 021100
TAFOLS
TAF
KOLS 021140Z 0212/0312 18015G25KT P6SM SCT028 BKN045 OVC100
      TEMPO 0212/0216 BKN028 OVC045
     FM021600 18024G32KT P6SM VCSH SCT025 BKN040 OVC080
     FM022100 19022G32KT P6SM -SHRA SCT025 OVC050
      TEMPO 0222/0302 SHRA BKN025 OVC050
     FM030300 18012G18KT P6SM VCSH SCT025 BKN040 BKN090
     FM030600 15007KT P6SM SCT045 SCT100=

USA.gov is the U.S. government's official web portal to all federal, state and local government web resources and services.